sensor_id;sensor_type;location;lat;lon;timestamp;temperature;humidity
16578;DHT22;8401;52.528;13.340;2023-03-30T00:02:09;10.90;99.90
16578;DHT22;8401;52.528;13.340;2023-03-30T00:04:35;10.90;99.90
16578;DHT22;8401;52.528;13.340;2023-03-30T00:07:02;10.90;99.90
16578;DHT22;8401;52.528;13.340;2023-03-30T00:09:30;10.80;99.90
16578;DHT22;8401;52.528;13.340;2023-03-30T00:11:57;10.80;99.90
16578;DHT22;8401;52.528;13.340;2023-03-30T00:14:28;10.80;99.90
16578;DHT22;8401;52.528;13.340;2023-03-30T00:16:56;10.80;99.90
16578;DHT22;8401;52.528;13.340;2023-03-30T00:19:21;10.80;99.90
16578;DHT22;8401;52.528;13.340;2023-03-30T00:21:48;10.80;99.90
16578;DHT22;8401;52.528;13.340;2023-03-30T00:24:14;10.80;99.90
16578;DHT22;8401;52.528;13.340;2023-03-30T00:26:40;10.50;99.90
16578;DHT22;8401;52.528;13.340;2023-03-30T00:29:05;10.50;99.90
16578;DHT22;8401;52.528;13.340;2023-03-30T00:31:31;10.50;99.90
16578;DHT22;8401;52.528;13.340;2023-03-30T00:33:57;10.50;99.90
16578;DHT22;8401;52.528;13.340;2023-03-30T00:36:22;10.60;99.90
16578;DHT22;8401;52.528;13.340;2023-03-30T00:38:48;10.60;99.90
16578;DHT22;8401;52.528;13.340;2023-03-30T00:41:15;10.70;99.90
16578;DHT22;8401;52.528;13.340;2023-03-30T00:44:01;10.60;99.90
16578;DHT22;8401;52.528;13.340;2023-03-30T00:46:28;10.30;99.90
16578;DHT22;8401;52.528;13.340;2023-03-30T00:48:57;10.40;99.90
16578;DHT22;8401;52.528;13.340;2023-03-30T00:51:25;10.50;99.90
16578;DHT22;8401;52.528;13.340;2023-03-30T00:53:55;10.50;99.90
16578;DHT22;8401;52.528;13.340;2023-03-30T00:56:26;10.50;99.90
16578;DHT22;8401;52.528;13.340;2023-03-30T00:58:53;10.40;99.90
16578;DHT22;8401;52.528;13.340;2023-03-30T01:01:19;10.50;99.90
16578;DHT22;8401;52.528;13.340;2023-03-30T01:03:55;10.40;99.90
16578;DHT22;8401;52.528;13.340;2023-03-30T01:06:24;10.50;99.90
16578;DHT22;8401;52.528;13.340;2023-03-30T01:08:54;10.50;99.90
16578;DHT22;8401;52.528;13.340;2023-03-30T01:11:20;10.60;99.90
16578;DHT22;8401;52.528;13.340;2023-03-30T01:13:48;10.50;99.90
16578;DHT22;8401;52.528;13.340;2023-03-30T01:22:40;10.40;99.90
16578;DHT22;8401;52.528;13.340;2023-03-30T01:30:32;10.30;99.90
16578;DHT22;8401;52.528;13.340;2023-03-30T01:44:07;10.10;99.90
16578;DHT22;8401;52.528;13.340;2023-03-30T01:46:37;10.10;99.90
16578;DHT22;8401;52.528;13.340;2023-03-30T01:52:36;10.10;99.90
16578;DHT22;8401;52.528;13.340;2023-03-30T01:54:49;10.10;99.90
16578;DHT22;8401;52.528;13.340;2023-03-30T02:00:13;10.10;99.90
16578;DHT22;8401;52.528;13.340;2023-03-30T02:05:50;10.20;99.90
16578;DHT22;8401;52.528;13.340;2023-03-30T02:08:22;10.20;99.90
16578;DHT22;8401;52.528;13.340;2023-03-30T02:10:50;10.20;99.90
16578;DHT22;8401;52.528;13.340;2023-03-30T02:13:18;10.20;99.90
16578;DHT22;8401;52.528;13.340;2023-03-30T02:15:47;10.30;99.90
16578;DHT22;8401;52.528;13.340;2023-03-30T02:18:14;10.20;99.90
16578;DHT22;8401;52.528;13.340;2023-03-30T02:20:40;10.20;99.90
16578;DHT22;8401;52.528;13.340;2023-03-30T02:23:07;10.30;99.90
16578;DHT22;8401;52.528;13.340;2023-03-30T02:25:37;10.30;99.90
16578;DHT22;8401;52.528;13.340;2023-03-30T02:28:07;10.30;99.90
16578;DHT22;8401;52.528;13.340;2023-03-30T02:30:33;10.30;99.90
16578;DHT22;8401;52.528;13.340;2023-03-30T02:33:00;10.20;99.90
16578;DHT22;8401;52.528;13.340;2023-03-30T02:38:44;10.20;99.90
16578;DHT22;8401;52.528;13.340;2023-03-30T02:46:59;10.10;99.90
16578;DHT22;8401;52.528;13.340;2023-03-30T02:49:46;10.10;99.90
16578;DHT22;8401;52.528;13.340;2023-03-30T02:52:51;10.10;99.90
16578;DHT22;8401;52.528;13.340;2023-03-30T02:55:27;10.10;99.90
16578;DHT22;8401;52.528;13.340;2023-03-30T02:58:18;10.00;99.90
16578;DHT22;8401;52.528;13.340;2023-03-30T03:00:54;10.00;99.90
16578;DHT22;8401;52.528;13.340;2023-03-30T03:03:26;10.00;99.90
16578;DHT22;8401;52.528;13.340;2023-03-30T03:05:56;10.00;99.90
16578;DHT22;8401;52.528;13.340;2023-03-30T03:08:29;10.00;99.90
16578;DHT22;8401;52.528;13.340;2023-03-30T03:10:58;10.00;99.90
16578;DHT22;8401;52.528;13.340;2023-03-30T03:13:24;10.00;99.90
16578;DHT22;8401;52.528;13.340;2023-03-30T03:15:52;9.90;99.90
16578;DHT22;8401;52.528;13.340;2023-03-30T03:18:21;10.00;99.90
16578;DHT22;8401;52.528;13.340;2023-03-30T03:20:47;9.90;99.90
16578;DHT22;8401;52.528;13.340;2023-03-30T03:23:12;9.90;99.90
16578;DHT22;8401;52.528;13.340;2023-03-30T03:25:38;10.00;99.90
16578;DHT22;8401;52.528;13.340;2023-03-30T03:28:04;10.00;99.90
16578;DHT22;8401;52.528;13.340;2023-03-30T03:30:29;10.10;99.90
16578;DHT22;8401;52.528;13.340;2023-03-30T03:32:55;10.10;99.90
16578;DHT22;8401;52.528;13.340;2023-03-30T03:35:21;10.10;99.90
16578;DHT22;8401;52.528;13.340;2023-03-30T03:37:47;10.00;99.90
16578;DHT22;8401;52.528;13.340;2023-03-30T03:40:12;10.00;99.90
16578;DHT22;8401;52.528;13.340;2023-03-30T03:42:39;10.00;99.90
16578;DHT22;8401;52.528;13.340;2023-03-30T03:45:05;10.10;99.90
16578;DHT22;8401;52.528;13.340;2023-03-30T03:47:32;10.10;99.90
16578;DHT22;8401;52.528;13.340;2023-03-30T03:49:58;10.10;99.90
16578;DHT22;8401;52.528;13.340;2023-03-30T03:52:25;10.10;99.90
16578;DHT22;8401;52.528;13.340;2023-03-30T03:54:51;10.10;99.90
16578;DHT22;8401;52.528;13.340;2023-03-30T03:57:16;10.10;99.90
16578;DHT22;8401;52.528;13.340;2023-03-30T03:59:42;10.10;99.90
16578;DHT22;8401;52.528;13.340;2023-03-30T04:02:07;10.00;99.90
16578;DHT22;8401;52.528;13.340;2023-03-30T04:04:33;10.00;99.90
16578;DHT22;8401;52.528;13.340;2023-03-30T04:06:58;10.00;99.90
16578;DHT22;8401;52.528;13.340;2023-03-30T04:09:25;10.00;99.90
16578;DHT22;8401;52.528;13.340;2023-03-30T04:11:51;10.00;99.90
16578;DHT22;8401;52.528;13.340;2023-03-30T04:14:16;10.10;99.90
16578;DHT22;8401;52.528;13.340;2023-03-30T04:16:42;10.00;99.90
16578;DHT22;8401;52.528;13.340;2023-03-30T04:19:08;10.00;99.90
16578;DHT22;8401;52.528;13.340;2023-03-30T04:21:37;10.00;99.90
16578;DHT22;8401;52.528;13.340;2023-03-30T04:24:06;10.00;99.90
16578;DHT22;8401;52.528;13.340;2023-03-30T04:26:32;10.00;99.90
16578;DHT22;8401;52.528;13.340;2023-03-30T04:28:58;10.10;99.90
16578;DHT22;8401;52.528;13.340;2023-03-30T04:31:24;10.10;99.90
16578;DHT22;8401;52.528;13.340;2023-03-30T04:33:50;10.10;99.90
16578;DHT22;8401;52.528;13.340;2023-03-30T04:36:18;10.10;99.90
16578;DHT22;8401;52.528;13.340;2023-03-30T04:38:45;10.00;99.90
16578;DHT22;8401;52.528;13.340;2023-03-30T04:41:24;10.10;99.90
16578;DHT22;8401;52.528;13.340;2023-03-30T04:43:51;10.10;99.90
16578;DHT22;8401;52.528;13.340;2023-03-30T04:46:16;10.10;99.90
16578;DHT22;8401;52.528;13.340;2023-03-30T04:48:42;10.10;99.90
16578;DHT22;8401;52.528;13.340;2023-03-30T04:51:09;10.10;99.90
16578;DHT22;8401;52.528;13.340;2023-03-30T04:53:34;10.10;99.90
16578;DHT22;8401;52.528;13.340;2023-03-30T04:56:00;10.00;99.90
16578;DHT22;8401;52.528;13.340;2023-03-30T04:58:26;10.00;99.90
16578;DHT22;8401;52.528;13.340;2023-03-30T05:00:54;10.00;99.90
16578;DHT22;8401;52.528;13.340;2023-03-30T05:03:20;10.00;99.90
16578;DHT22;8401;52.528;13.340;2023-03-30T05:05:46;10.00;99.90
16578;DHT22;8401;52.528;13.340;2023-03-30T05:08:11;10.10;99.90
16578;DHT22;8401;52.528;13.340;2023-03-30T05:10:37;10.10;99.90
16578;DHT22;8401;52.528;13.340;2023-03-30T05:13:03;10.10;99.90
16578;DHT22;8401;52.528;13.340;2023-03-30T05:15:28;10.10;99.90
16578;DHT22;8401;52.528;13.340;2023-03-30T05:17:54;10.10;99.90
16578;DHT22;8401;52.528;13.340;2023-03-30T05:20:20;10.10;99.90
16578;DHT22;8401;52.528;13.340;2023-03-30T05:22:45;10.10;99.90
16578;DHT22;8401;52.528;13.340;2023-03-30T05:25:12;10.00;99.90
16578;DHT22;8401;52.528;13.340;2023-03-30T05:27:37;10.00;99.90
16578;DHT22;8401;52.528;13.340;2023-03-30T05:30:03;9.90;99.90
16578;DHT22;8401;52.528;13.340;2023-03-30T05:32:29;9.90;99.90
16578;DHT22;8401;52.528;13.340;2023-03-30T05:34:55;9.90;99.90
16578;DHT22;8401;52.528;13.340;2023-03-30T05:37:21;10.00;99.90
16578;DHT22;8401;52.528;13.340;2023-03-30T05:39:46;9.90;99.90
16578;DHT22;8401;52.528;13.340;2023-03-30T05:42:12;10.00;99.90
16578;DHT22;8401;52.528;13.340;2023-03-30T05:44:38;10.00;99.90
16578;DHT22;8401;52.528;13.340;2023-03-30T05:47:04;10.00;99.90
16578;DHT22;8401;52.528;13.340;2023-03-30T05:49:29;10.00;99.90
16578;DHT22;8401;52.528;13.340;2023-03-30T05:51:55;10.00;99.90
16578;DHT22;8401;52.528;13.340;2023-03-30T05:54:21;10.10;99.90
16578;DHT22;8401;52.528;13.340;2023-03-30T05:56:47;10.10;99.90
16578;DHT22;8401;52.528;13.340;2023-03-30T05:59:13;10.10;99.90
16578;DHT22;8401;52.528;13.340;2023-03-30T06:01:39;10.20;99.90
16578;DHT22;8401;52.528;13.340;2023-03-30T06:04:05;10.10;99.90
16578;DHT22;8401;52.528;13.340;2023-03-30T06:06:32;10.20;99.90
16578;DHT22;8401;52.528;13.340;2023-03-30T06:08:58;10.20;99.90
16578;DHT22;8401;52.528;13.340;2023-03-30T06:11:23;10.20;99.90
16578;DHT22;8401;52.528;13.340;2023-03-30T06:13:49;10.20;99.90
16578;DHT22;8401;52.528;13.340;2023-03-30T06:16:15;10.20;99.90
16578;DHT22;8401;52.528;13.340;2023-03-30T06:18:40;10.30;99.90
16578;DHT22;8401;52.528;13.340;2023-03-30T06:21:06;10.30;99.90
16578;DHT22;8401;52.528;13.340;2023-03-30T06:23:35;10.40;99.90
16578;DHT22;8401;52.528;13.340;2023-03-30T06:26:02;10.50;99.90
16578;DHT22;8401;52.528;13.340;2023-03-30T06:28:29;10.50;99.90
16578;DHT22;8401;52.528;13.340;2023-03-30T06:30:55;10.60;99.90
16578;DHT22;8401;52.528;13.340;2023-03-30T06:33:21;10.60;99.90
16578;DHT22;8401;52.528;13.340;2023-03-30T06:35:51;10.60;99.90
16578;DHT22;8401;52.528;13.340;2023-03-30T06:38:18;10.70;99.90
16578;DHT22;8401;52.528;13.340;2023-03-30T06:40:44;10.80;99.90
16578;DHT22;8401;52.528;13.340;2023-03-30T06:43:15;10.80;99.90
16578;DHT22;8401;52.528;13.340;2023-03-30T06:45:42;11.10;99.90
16578;DHT22;8401;52.528;13.340;2023-03-30T06:48:08;11.20;99.90
16578;DHT22;8401;52.528;13.340;2023-03-30T06:50:34;11.20;99.90
16578;DHT22;8401;52.528;13.340;2023-03-30T06:53:01;11.20;99.90
16578;DHT22;8401;52.528;13.340;2023-03-30T06:55:26;11.30;99.90
16578;DHT22;8401;52.528;13.340;2023-03-30T06:57:52;11.30;99.90
16578;DHT22;8401;52.528;13.340;2023-03-30T07:00:18;11.40;99.90
16578;DHT22;8401;52.528;13.340;2023-03-30T07:02:44;11.50;99.90
16578;DHT22;8401;52.528;13.340;2023-03-30T07:05:10;11.50;99.90
16578;DHT22;8401;52.528;13.340;2023-03-30T07:07:37;11.50;99.90
16578;DHT22;8401;52.528;13.340;2023-03-30T07:10:03;11.50;99.90
16578;DHT22;8401;52.528;13.340;2023-03-30T07:12:35;11.30;99.90
16578;DHT22;8401;52.528;13.340;2023-03-30T07:15:01;11.40;99.90
16578;DHT22;8401;52.528;13.340;2023-03-30T07:17:26;11.50;99.90
16578;DHT22;8401;52.528;13.340;2023-03-30T07:19:52;11.60;99.90
16578;DHT22;8401;52.528;13.340;2023-03-30T07:22:18;11.70;99.90
16578;DHT22;8401;52.528;13.340;2023-03-30T07:24:44;11.80;99.90
16578;DHT22;8401;52.528;13.340;2023-03-30T07:27:10;12.00;99.90
16578;DHT22;8401;52.528;13.340;2023-03-30T07:29:35;12.00;99.90
16578;DHT22;8401;52.528;13.340;2023-03-30T07:32:01;12.40;99.90
16578;DHT22;8401;52.528;13.340;2023-03-30T07:34:27;12.40;99.90
16578;DHT22;8401;52.528;13.340;2023-03-30T07:36:53;12.40;99.90
16578;DHT22;8401;52.528;13.340;2023-03-30T07:39:19;12.40;99.90
16578;DHT22;8401;52.528;13.340;2023-03-30T07:41:45;12.60;99.90
16578;DHT22;8401;52.528;13.340;2023-03-30T07:44:11;12.80;99.90
16578;DHT22;8401;52.528;13.340;2023-03-30T07:46:36;13.00;99.90
16578;DHT22;8401;52.528;13.340;2023-03-30T07:49:02;13.10;99.90
16578;DHT22;8401;52.528;13.340;2023-03-30T07:51:27;13.10;99.90
16578;DHT22;8401;52.528;13.340;2023-03-30T07:53:53;13.10;99.90
16578;DHT22;8401;52.528;13.340;2023-03-30T07:56:19;13.20;99.90
16578;DHT22;8401;52.528;13.340;2023-03-30T07:58:45;13.30;99.90
16578;DHT22;8401;52.528;13.340;2023-03-30T08:01:11;13.50;99.90
16578;DHT22;8401;52.528;13.340;2023-03-30T08:03:38;13.30;99.90
16578;DHT22;8401;52.528;13.340;2023-03-30T08:06:04;13.60;99.90
16578;DHT22;8401;52.528;13.340;2023-03-30T08:08:31;13.80;99.90
16578;DHT22;8401;52.528;13.340;2023-03-30T08:10:58;14.00;99.90
16578;DHT22;8401;52.528;13.340;2023-03-30T08:16:10;14.40;99.90
16578;DHT22;8401;52.528;13.340;2023-03-30T08:18:36;14.40;99.90
16578;DHT22;8401;52.528;13.340;2023-03-30T08:21:03;14.70;99.90
16578;DHT22;8401;52.528;13.340;2023-03-30T08:23:28;15.10;99.90
16578;DHT22;8401;52.528;13.340;2023-03-30T08:25:58;15.30;99.90
16578;DHT22;8401;52.528;13.340;2023-03-30T08:28:24;15.50;99.90
16578;DHT22;8401;52.528;13.340;2023-03-30T08:30:50;15.80;99.90
16578;DHT22;8401;52.528;13.340;2023-03-30T08:33:16;15.80;99.90
16578;DHT22;8401;52.528;13.340;2023-03-30T08:35:46;16.20;99.90
16578;DHT22;8401;52.528;13.340;2023-03-30T08:38:12;16.50;99.90
16578;DHT22;8401;52.528;13.340;2023-03-30T08:40:45;16.70;99.90
16578;DHT22;8401;52.528;13.340;2023-03-30T08:45:48;17.10;99.90
16578;DHT22;8401;52.528;13.340;2023-03-30T08:48:26;17.30;99.90
16578;DHT22;8401;52.528;13.340;2023-03-30T08:51:14;17.30;99.90
16578;DHT22;8401;52.528;13.340;2023-03-30T08:53:43;18.60;99.90
16578;DHT22;8401;52.528;13.340;2023-03-30T08:59:08;21.10;99.90
16578;DHT22;8401;52.528;13.340;2023-03-30T09:02:00;21.60;99.90
16578;DHT22;8401;52.528;13.340;2023-03-30T09:07:17;21.80;99.90
16578;DHT22;8401;52.528;13.340;2023-03-30T09:09:46;21.40;99.90
16578;DHT22;8401;52.528;13.340;2023-03-30T09:12:28;21.30;99.90
16578;DHT22;8401;52.528;13.340;2023-03-30T09:15:17;21.20;99.90
16578;DHT22;8401;52.528;13.340;2023-03-30T09:17:52;20.10;99.90
16578;DHT22;8401;52.528;13.340;2023-03-30T09:20:23;19.70;99.90
16578;DHT22;8401;52.528;13.340;2023-03-30T09:22:51;19.40;99.90
16578;DHT22;8401;52.528;13.340;2023-03-30T09:25:22;19.10;99.90
16578;DHT22;8401;52.528;13.340;2023-03-30T09:30:36;18.40;99.90
16578;DHT22;8401;52.528;13.340;2023-03-30T09:38:31;17.80;99.90
16578;DHT22;8401;52.528;13.340;2023-03-30T09:41:10;18.00;99.90
16578;DHT22;8401;52.528;13.340;2023-03-30T09:43:43;18.10;99.90
16578;DHT22;8401;52.528;13.340;2023-03-30T09:46:11;17.90;99.90
16578;DHT22;8401;52.528;13.340;2023-03-30T09:48:40;17.60;99.90
16578;DHT22;8401;52.528;13.340;2023-03-30T09:51:23;17.40;99.90
16578;DHT22;8401;52.528;13.340;2023-03-30T09:53:58;17.30;99.90
16578;DHT22;8401;52.528;13.340;2023-03-30T09:59:18;17.10;99.90
16578;DHT22;8401;52.528;13.340;2023-03-30T10:01:45;17.40;99.90
16578;DHT22;8401;52.528;13.340;2023-03-30T10:04:11;17.30;99.90
16578;DHT22;8401;52.528;13.340;2023-03-30T10:06:48;17.20;99.90
16578;DHT22;8401;52.528;13.340;2023-03-30T10:09:16;17.10;99.90
16578;DHT22;8401;52.528;13.340;2023-03-30T10:11:44;16.90;99.90
16578;DHT22;8401;52.528;13.340;2023-03-30T10:14:33;17.00;99.90
16578;DHT22;8401;52.528;13.340;2023-03-30T10:17:01;17.00;99.90
16578;DHT22;8401;52.528;13.340;2023-03-30T10:19:28;17.00;99.90
16578;DHT22;8401;52.528;13.340;2023-03-30T10:21:58;17.00;99.90
16578;DHT22;8401;52.528;13.340;2023-03-30T10:24:32;17.00;99.90
16578;DHT22;8401;52.528;13.340;2023-03-30T10:27:07;17.00;99.90
16578;DHT22;8401;52.528;13.340;2023-03-30T10:29:34;16.80;99.90
16578;DHT22;8401;52.528;13.340;2023-03-30T10:34:40;16.80;99.90
16578;DHT22;8401;52.528;13.340;2023-03-30T10:37:13;16.90;99.90
16578;DHT22;8401;52.528;13.340;2023-03-30T10:39:42;16.70;99.90
16578;DHT22;8401;52.528;13.340;2023-03-30T10:42:14;16.70;99.90
16578;DHT22;8401;52.528;13.340;2023-03-30T10:44:48;16.80;99.90
16578;DHT22;8401;52.528;13.340;2023-03-30T10:50:43;17.50;99.90
16578;DHT22;8401;52.528;13.340;2023-03-30T10:56:24;18.70;99.90
16578;DHT22;8401;52.528;13.340;2023-03-30T11:04:16;20.10;99.90
16578;DHT22;8401;52.528;13.340;2023-03-30T11:06:43;20.10;99.90
16578;DHT22;8401;52.528;13.340;2023-03-30T11:09:14;19.60;99.90
16578;DHT22;8401;52.528;13.340;2023-03-30T11:12:04;19.10;99.90
16578;DHT22;8401;52.528;13.340;2023-03-30T11:14:56;18.60;99.90
16578;DHT22;8401;52.528;13.340;2023-03-30T11:17:30;18.70;99.90
16578;DHT22;8401;52.528;13.340;2023-03-30T11:20:13;18.40;99.90
16578;DHT22;8401;52.528;13.340;2023-03-30T11:22:48;18.10;99.90
16578;DHT22;8401;52.528;13.340;2023-03-30T11:25:28;17.80;99.90
16578;DHT22;8401;52.528;13.340;2023-03-30T11:27:58;17.80;99.90
16578;DHT22;8401;52.528;13.340;2023-03-30T11:30:29;17.50;99.90
16578;DHT22;8401;52.528;13.340;2023-03-30T11:33:22;17.20;99.90
16578;DHT22;8401;52.528;13.340;2023-03-30T11:36:11;17.30;99.90
16578;DHT22;8401;52.528;13.340;2023-03-30T11:38:59;17.30;99.90
16578;DHT22;8401;52.528;13.340;2023-03-30T11:41:37;18.40;99.90
16578;DHT22;8401;52.528;13.340;2023-03-30T11:44:08;18.50;99.90
16578;DHT22;8401;52.528;13.340;2023-03-30T11:46:43;18.50;99.90
16578;DHT22;8401;52.528;13.340;2023-03-30T11:49:33;18.40;99.90
16578;DHT22;8401;52.528;13.340;2023-03-30T11:57:42;18.50;99.90
16578;DHT22;8401;52.528;13.340;2023-03-30T12:05:41;18.40;99.90
16578;DHT22;8401;52.528;13.340;2023-03-30T12:11:04;18.80;99.90
16578;DHT22;8401;52.528;13.340;2023-03-30T12:13:33;18.70;99.90
16578;DHT22;8401;52.528;13.340;2023-03-30T12:16:23;18.80;99.90
16578;DHT22;8401;52.528;13.340;2023-03-30T12:19:48;18.80;99.90
16578;DHT22;8401;52.528;13.340;2023-03-30T12:22:03;18.70;99.90
16578;DHT22;8401;52.528;13.340;2023-03-30T12:24:41;18.80;99.90
16578;DHT22;8401;52.528;13.340;2023-03-30T12:27:10;18.70;99.90
16578;DHT22;8401;52.528;13.340;2023-03-30T12:29:50;18.80;99.90
16578;DHT22;8401;52.528;13.340;2023-03-30T12:32:29;18.80;99.90
16578;DHT22;8401;52.528;13.340;2023-03-30T12:34:58;18.70;99.90
16578;DHT22;8401;52.528;13.340;2023-03-30T12:37:40;18.80;99.90
16578;DHT22;8401;52.528;13.340;2023-03-30T12:40:19;19.00;99.90
16578;DHT22;8401;52.528;13.340;2023-03-30T12:43:02;19.30;99.90
16578;DHT22;8401;52.528;13.340;2023-03-30T12:45:33;19.20;99.90
16578;DHT22;8401;52.528;13.340;2023-03-30T12:48:08;19.20;99.90
16578;DHT22;8401;52.528;13.340;2023-03-30T12:50:57;19.10;99.90
16578;DHT22;8401;52.528;13.340;2023-03-30T12:53:35;19.30;99.90
16578;DHT22;8401;52.528;13.340;2023-03-30T12:56:08;19.40;99.90
16578;DHT22;8401;52.528;13.340;2023-03-30T12:58:57;19.60;99.90
16578;DHT22;8401;52.528;13.340;2023-03-30T13:04:35;19.40;99.90
16578;DHT22;8401;52.528;13.340;2023-03-30T13:07:05;19.50;99.90
16578;DHT22;8401;52.528;13.340;2023-03-30T13:12:39;19.20;99.90
16578;DHT22;8401;52.528;13.340;2023-03-30T13:15:44;19.50;99.90
16578;DHT22;8401;52.528;13.340;2023-03-30T13:23:24;19.40;99.90
16578;DHT22;8401;52.528;13.340;2023-03-30T13:25:51;19.10;99.90
16578;DHT22;8401;52.528;13.340;2023-03-30T13:29:02;19.00;99.90
16578;DHT22;8401;52.528;13.340;2023-03-30T13:35:00;18.80;99.90
16578;DHT22;8401;52.528;13.340;2023-03-30T13:40:24;18.70;99.90
16578;DHT22;8401;52.528;13.340;2023-03-30T13:43:09;18.50;99.90
16578;DHT22;8401;52.528;13.340;2023-03-30T13:45:53;18.40;99.90
16578;DHT22;8401;52.528;13.340;2023-03-30T13:51:18;17.30;99.90
16578;DHT22;8401;52.528;13.340;2023-03-30T13:53:52;16.60;99.90
16578;DHT22;8401;52.528;13.340;2023-03-30T13:56:19;15.50;99.90
16578;DHT22;8401;52.528;13.340;2023-03-30T13:59:09;14.20;99.90
16578;DHT22;8401;52.528;13.340;2023-03-30T14:01:37;13.40;99.90
16578;DHT22;8401;52.528;13.340;2023-03-30T14:04:03;12.80;99.90
16578;DHT22;8401;52.528;13.340;2023-03-30T14:06:31;12.70;99.90
16578;DHT22;8401;52.528;13.340;2023-03-30T14:11:45;12.30;99.90
16578;DHT22;8401;52.528;13.340;2023-03-30T14:14:16;12.30;99.90
16578;DHT22;8401;52.528;13.340;2023-03-30T14:16:43;12.20;99.90
16578;DHT22;8401;52.528;13.340;2023-03-30T14:21:55;12.30;99.90
16578;DHT22;8401;52.528;13.340;2023-03-30T14:24:30;12.20;99.90
16578;DHT22;8401;52.528;13.340;2023-03-30T14:27:05;12.20;99.90
16578;DHT22;8401;52.528;13.340;2023-03-30T14:29:32;12.20;99.90
16578;DHT22;8401;52.528;13.340;2023-03-30T14:32:02;12.20;99.90
16578;DHT22;8401;52.528;13.340;2023-03-30T14:34:32;12.20;99.90
16578;DHT22;8401;52.528;13.340;2023-03-30T14:37:03;12.20;99.90
16578;DHT22;8401;52.528;13.340;2023-03-30T14:39:31;12.20;99.90
16578;DHT22;8401;52.528;13.340;2023-03-30T14:42:07;12.30;99.90
16578;DHT22;8401;52.528;13.340;2023-03-30T14:44:37;12.40;99.90
16578;DHT22;8401;52.528;13.340;2023-03-30T14:47:04;12.40;99.90
16578;DHT22;8401;52.528;13.340;2023-03-30T14:49:30;12.50;99.90
16578;DHT22;8401;52.528;13.340;2023-03-30T14:52:01;12.50;99.90
16578;DHT22;8401;52.528;13.340;2023-03-30T14:54:27;12.50;99.90
16578;DHT22;8401;52.528;13.340;2023-03-30T14:57:02;12.50;99.90
16578;DHT22;8401;52.528;13.340;2023-03-30T14:59:30;12.60;99.90
16578;DHT22;8401;52.528;13.340;2023-03-30T15:01:58;12.70;99.90
16578;DHT22;8401;52.528;13.340;2023-03-30T15:04:31;12.70;99.90
16578;DHT22;8401;52.528;13.340;2023-03-30T15:06:58;12.80;99.90
16578;DHT22;8401;52.528;13.340;2023-03-30T15:09:25;12.80;99.90
16578;DHT22;8401;52.528;13.340;2023-03-30T15:11:59;12.70;99.90
16578;DHT22;8401;52.528;13.340;2023-03-30T15:14:31;12.70;99.90
16578;DHT22;8401;52.528;13.340;2023-03-30T15:16:57;12.70;99.90
16578;DHT22;8401;52.528;13.340;2023-03-30T15:19:31;12.70;99.90
16578;DHT22;8401;52.528;13.340;2023-03-30T15:22:23;12.80;99.90
16578;DHT22;8401;52.528;13.340;2023-03-30T15:24:52;12.90;99.90
16578;DHT22;8401;52.528;13.340;2023-03-30T15:27:19;12.90;99.90
16578;DHT22;8401;52.528;13.340;2023-03-30T15:29:46;12.90;99.90
16578;DHT22;8401;52.528;13.340;2023-03-30T15:32:16;13.00;99.90
16578;DHT22;8401;52.528;13.340;2023-03-30T15:37:32;13.00;99.90
16578;DHT22;8401;52.528;13.340;2023-03-30T15:39:58;13.00;99.90
16578;DHT22;8401;52.528;13.340;2023-03-30T15:42:31;12.90;99.90
16578;DHT22;8401;52.528;13.340;2023-03-30T15:45:02;12.90;99.90
16578;DHT22;8401;52.528;13.340;2023-03-30T15:47:28;12.90;99.90
16578;DHT22;8401;52.528;13.340;2023-03-30T15:49:55;13.00;99.90
16578;DHT22;8401;52.528;13.340;2023-03-30T15:52:23;13.00;99.90
16578;DHT22;8401;52.528;13.340;2023-03-30T15:54:54;13.00;99.90
16578;DHT22;8401;52.528;13.340;2023-03-30T15:57:22;13.00;99.90
16578;DHT22;8401;52.528;13.340;2023-03-30T16:00:00;12.90;99.90
16578;DHT22;8401;52.528;13.340;2023-03-30T16:04:55;12.80;99.90
16578;DHT22;8401;52.528;13.340;2023-03-30T16:07:23;12.80;99.90
16578;DHT22;8401;52.528;13.340;2023-03-30T16:09:50;12.80;99.90
16578;DHT22;8401;52.528;13.340;2023-03-30T16:12:24;12.90;99.90
16578;DHT22;8401;52.528;13.340;2023-03-30T16:14:50;13.00;99.90
16578;DHT22;8401;52.528;13.340;2023-03-30T16:17:17;13.00;99.90
16578;DHT22;8401;52.528;13.340;2023-03-30T16:19:44;13.00;99.90
16578;DHT22;8401;52.528;13.340;2023-03-30T16:22:11;13.00;99.90
16578;DHT22;8401;52.528;13.340;2023-03-30T16:24:37;13.10;99.90
16578;DHT22;8401;52.528;13.340;2023-03-30T16:27:04;13.10;99.90
16578;DHT22;8401;52.528;13.340;2023-03-30T16:29:31;13.10;99.90
16578;DHT22;8401;52.528;13.340;2023-03-30T16:31:57;13.20;99.90
16578;DHT22;8401;52.528;13.340;2023-03-30T16:34:23;13.20;99.90
16578;DHT22;8401;52.528;13.340;2023-03-30T16:36:49;13.20;99.90
16578;DHT22;8401;52.528;13.340;2023-03-30T16:39:33;13.00;99.90
16578;DHT22;8401;52.528;13.340;2023-03-30T16:41:58;13.00;99.90
16578;DHT22;8401;52.528;13.340;2023-03-30T16:44:24;13.00;99.90
16578;DHT22;8401;52.528;13.340;2023-03-30T16:46:50;13.00;99.90
16578;DHT22;8401;52.528;13.340;2023-03-30T16:49:21;13.00;99.90
16578;DHT22;8401;52.528;13.340;2023-03-30T16:51:48;13.00;99.90
16578;DHT22;8401;52.528;13.340;2023-03-30T16:54:13;13.00;99.90
16578;DHT22;8401;52.528;13.340;2023-03-30T16:56:39;13.00;99.90
16578;DHT22;8401;52.528;13.340;2023-03-30T16:59:08;13.10;99.90
16578;DHT22;8401;52.528;13.340;2023-03-30T17:01:36;13.10;99.90
16578;DHT22;8401;52.528;13.340;2023-03-30T17:04:01;13.00;99.90
16578;DHT22;8401;52.528;13.340;2023-03-30T17:06:34;13.10;99.90
16578;DHT22;8401;52.528;13.340;2023-03-30T17:08:59;13.00;99.90
16578;DHT22;8401;52.528;13.340;2023-03-30T17:11:25;13.00;99.90
16578;DHT22;8401;52.528;13.340;2023-03-30T17:13:51;13.00;99.90
16578;DHT22;8401;52.528;13.340;2023-03-30T17:16:16;13.00;99.90
16578;DHT22;8401;52.528;13.340;2023-03-30T17:18:42;12.90;99.90
16578;DHT22;8401;52.528;13.340;2023-03-30T17:21:08;12.90;99.90
16578;DHT22;8401;52.528;13.340;2023-03-30T17:23:41;12.90;99.90
16578;DHT22;8401;52.528;13.340;2023-03-30T17:26:08;12.80;99.90
16578;DHT22;8401;52.528;13.340;2023-03-30T17:28:35;12.80;99.90
16578;DHT22;8401;52.528;13.340;2023-03-30T17:31:05;12.70;99.90
16578;DHT22;8401;52.528;13.340;2023-03-30T17:33:31;12.60;99.90
16578;DHT22;8401;52.528;13.340;2023-03-30T17:36:05;12.60;99.90
16578;DHT22;8401;52.528;13.340;2023-03-30T17:38:31;12.60;99.90
16578;DHT22;8401;52.528;13.340;2023-03-30T17:40:57;12.60;99.90
16578;DHT22;8401;52.528;13.340;2023-03-30T17:43:23;12.60;99.90
16578;DHT22;8401;52.528;13.340;2023-03-30T17:45:49;12.50;99.90
16578;DHT22;8401;52.528;13.340;2023-03-30T17:48:17;12.50;99.90
16578;DHT22;8401;52.528;13.340;2023-03-30T17:50:48;12.50;99.90